createdAt,value
2019-05-02T00:01:01.987Z,16.30
2019-05-02T00:03:30.905Z,15.08
2019-05-02T00:06:02.938Z,13.00
2019-05-02T00:08:33.205Z,13.90
2019-05-02T00:11:00.250Z,15.60
2019-05-02T00:13:29.115Z,12.82
2019-05-02T00:15:58.185Z,13.85
2019-05-02T00:18:27.116Z,14.47
2019-05-02T00:20:57.085Z,13.93
2019-05-02T00:23:27.941Z,18.15
2019-05-02T00:25:56.273Z,16.77
2019-05-02T00:28:24.736Z,18.27
2019-05-02T00:30:53.221Z,16.75
2019-05-02T00:33:21.687Z,17.15
2019-05-02T00:35:50.106Z,18.60
2019-05-02T00:38:18.554Z,14.33
2019-05-02T00:40:47.151Z,16.07
2019-05-02T00:43:15.568Z,16.32
2019-05-02T00:45:44.132Z,15.35
2019-05-02T00:48:23.144Z,17.05
2019-05-02T00:50:52.214Z,18.00
2019-05-02T00:53:20.569Z,15.65
2019-05-02T00:55:48.976Z,15.20
2019-05-02T00:58:17.500Z,15.55
2019-05-02T01:01:04.038Z,16.02
2019-05-02T01:03:34.125Z,16.82
2019-05-02T01:06:02.545Z,14.60
2019-05-02T01:08:35.420Z,15.80
2019-05-02T01:11:01.162Z,17.17
2019-05-02T01:13:29.603Z,13.10
2019-05-02T01:15:58.005Z,18.17
2019-05-02T01:18:26.460Z,15.08
2019-05-02T01:20:58.218Z,12.50
2019-05-02T01:23:27.645Z,14.23
2019-05-02T01:25:55.204Z,12.98
2019-05-02T01:28:28.395Z,15.53
2019-05-02T01:31:13.292Z,14.93
2019-05-02T01:33:43.595Z,12.50
2019-05-02T01:36:16.430Z,13.83
2019-05-02T01:41:16.956Z,15.95
2019-05-02T01:43:45.387Z,13.13
2019-05-02T01:46:17.083Z,14.90
2019-05-02T01:48:45.735Z,14.40
2019-05-02T01:51:14.264Z,13.48
2019-05-02T01:53:42.689Z,12.07
2019-05-02T01:56:11.197Z,13.35
2019-05-02T01:58:39.617Z,13.55
2019-05-02T02:01:08.209Z,13.78
2019-05-02T02:03:40.538Z,15.80
2019-05-02T02:06:08.233Z,13.25
2019-05-02T02:08:37.077Z,17.70
2019-05-02T02:11:05.538Z,14.25
2019-05-02T02:13:36.510Z,14.18
2019-05-02T02:16:05.927Z,14.87
2019-05-02T02:18:36.156Z,13.43
2019-05-02T02:21:25.774Z,15.50
2019-05-02T02:23:54.926Z,16.17
2019-05-02T02:26:25.008Z,15.03
2019-05-02T02:28:53.682Z,13.75
2019-05-02T02:31:22.634Z,15.18
2019-05-02T02:33:51.153Z,14.83
2019-05-02T02:36:30.052Z,16.20
2019-05-02T02:38:49.856Z,12.82
2019-05-02T02:41:18.294Z,15.58
2019-05-02T02:43:48.417Z,16.82
2019-05-02T02:46:18.489Z,13.80
2019-05-02T02:48:46.896Z,13.30
2019-05-02T02:51:24.089Z,12.53
2019-05-02T02:53:45.566Z,13.45
2019-05-02T02:56:14.155Z,13.38
2019-05-02T02:58:47.924Z,14.50
2019-05-02T03:01:12.819Z,15.15
2019-05-02T03:03:41.492Z,15.93
2019-05-02T03:06:09.985Z,15.90
2019-05-02T03:08:45.739Z,13.45
2019-05-02T03:11:10.317Z,13.30
2019-05-02T03:13:52.324Z,12.13
2019-05-02T03:16:24.774Z,13.65
2019-05-02T03:18:53.258Z,12.55
2019-05-02T03:21:22.492Z,16.52
2019-05-02T03:24:01.350Z,14.33
2019-05-02T03:26:21.430Z,18.65
2019-05-02T03:28:57.625Z,17.42
2019-05-02T03:31:25.732Z,18.85
2019-05-02T03:33:59.095Z,13.08
2019-05-02T03:36:29.685Z,12.70
2019-05-02T03:38:50.902Z,12.68
2019-05-02T03:41:20.737Z,17.80
2019-05-02T03:43:50.204Z,16.30
2019-05-02T03:46:20.671Z,13.80
2019-05-02T03:48:48.991Z,15.13
2019-05-02T03:51:21.521Z,14.15
2019-05-02T03:53:47.874Z,16.07
2019-05-02T03:56:16.300Z,16.10
2019-05-02T03:58:48.506Z,20.12
2019-05-02T04:01:15.482Z,16.12
2019-05-02T04:03:44.271Z,20.12
2019-05-02T04:06:13.871Z,16.27
2019-05-02T04:08:43.964Z,19.27
2019-05-02T04:11:15.465Z,16.85
2019-05-02T04:13:43.894Z,15.08
2019-05-02T04:16:15.766Z,17.05
2019-05-02T04:18:54.533Z,18.48
2019-05-02T04:21:13.675Z,18.75
2019-05-02T04:23:42.760Z,16.67
2019-05-02T04:26:14.272Z,15.78
2019-05-02T04:28:45.414Z,17.55
2019-05-02T04:31:13.437Z,13.50
2019-05-02T04:33:42.018Z,15.18
2019-05-02T04:36:15.487Z,16.55
2019-05-02T04:38:46.986Z,19.37
2019-05-02T04:41:10.930Z,18.32
2019-05-02T04:43:43.109Z,20.00
2019-05-02T04:46:17.952Z,24.02
2019-05-02T04:48:44.225Z,19.75
2019-05-02T04:51:16.026Z,17.60
2019-05-02T04:53:45.013Z,21.57
2019-05-02T04:56:10.612Z,21.45
2019-05-02T04:58:40.730Z,19.67
2019-05-02T05:01:11.052Z,18.70
2019-05-02T05:03:39.518Z,16.95
2019-05-02T05:06:12.206Z,16.60
2019-05-02T05:08:38.947Z,14.87
2019-05-02T05:11:08.558Z,18.62
2019-05-02T05:13:37.414Z,16.67
2019-05-02T05:16:08.688Z,16.32
2019-05-02T05:18:37.848Z,15.75
2019-05-02T05:21:10.261Z,16.48
2019-05-02T05:23:40.997Z,16.82
2019-05-02T05:26:09.437Z,16.52
2019-05-02T05:28:40.466Z,16.32
2019-05-02T05:31:09.557Z,14.80
2019-05-02T05:33:37.995Z,18.95
2019-05-02T05:36:08.235Z,15.00
2019-05-02T05:38:40.312Z,14.35
2019-05-02T05:41:11.192Z,18.42
2019-05-02T05:43:38.110Z,21.35
2019-05-02T05:46:12.318Z,17.20
2019-05-02T05:48:40.615Z,14.45
2019-05-02T05:51:11.879Z,15.88
2019-05-02T05:53:40.608Z,15.60
2019-05-02T05:56:09.032Z,16.73
2019-05-02T05:58:39.770Z,19.62
2019-05-02T06:01:10.183Z,16.85
2019-05-02T06:03:41.513Z,17.00
2019-05-02T06:06:10.017Z,38.38
2019-05-02T06:08:38.077Z,22.27
2019-05-02T06:11:06.576Z,18.62
2019-05-02T06:13:37.875Z,16.27
2019-05-02T06:16:05.165Z,17.67
2019-05-02T06:18:36.429Z,13.85
2019-05-02T06:21:08.851Z,15.80
2019-05-02T06:23:36.397Z,18.05
2019-05-02T06:26:07.910Z,16.80
2019-05-02T06:28:36.478Z,14.95
2019-05-02T06:31:07.146Z,16.85
2019-05-02T06:33:34.913Z,15.95
2019-05-02T06:36:03.404Z,16.05
2019-05-02T06:38:31.973Z,12.60
2019-05-02T06:41:00.405Z,12.60
2019-05-02T06:43:28.827Z,19.67
2019-05-02T06:45:57.267Z,17.32
2019-05-02T06:48:25.709Z,14.38
2019-05-02T06:50:54.133Z,13.38
2019-05-02T06:53:22.579Z,15.98
2019-05-02T06:55:50.996Z,13.03
2019-05-02T06:58:19.454Z,17.30
2019-05-02T07:00:57.561Z,13.83
2019-05-02T07:03:18.040Z,16.27
2019-05-02T07:05:48.933Z,13.83
2019-05-02T07:08:16.734Z,20.50
2019-05-02T07:10:45.488Z,15.30
2019-05-02T07:13:14.984Z,12.90
2019-05-02T07:15:48.325Z,17.17
2019-05-02T07:18:19.995Z,16.65
2019-05-02T07:20:48.414Z,17.17
2019-05-02T07:23:18.341Z,16.80
2019-05-02T07:25:47.010Z,13.40
2019-05-02T07:28:15.418Z,17.40
2019-05-02T07:30:44.006Z,21.55
2019-05-02T07:33:12.441Z,19.02
2019-05-02T07:35:40.888Z,15.53
2019-05-02T07:38:09.333Z,16.20
2019-05-02T07:40:37.860Z,16.73
2019-05-02T07:43:06.278Z,15.20
2019-05-02T07:45:34.729Z,15.00
2019-05-02T07:48:03.431Z,16.80
2019-05-02T07:50:31.880Z,14.38
2019-05-02T07:53:04.522Z,19.02
2019-05-02T07:55:30.893Z,16.57
2019-05-02T07:58:01.950Z,13.90
2019-05-02T08:00:37.163Z,14.50
2019-05-02T08:03:05.072Z,15.38
2019-05-02T08:05:33.048Z,12.70
2019-05-02T08:08:01.482Z,15.23
2019-05-02T08:10:29.987Z,12.15
2019-05-02T08:12:58.419Z,15.30
2019-05-02T08:15:26.855Z,13.85
2019-05-02T08:17:55.453Z,13.20
2019-05-02T08:20:23.932Z,14.83
2019-05-02T08:22:52.468Z,11.10
2019-05-02T08:25:21.083Z,14.90
2019-05-02T08:27:51.152Z,17.62
2019-05-02T08:30:21.740Z,15.88
2019-05-02T08:32:50.445Z,17.40
2019-05-02T08:35:18.864Z,13.98
2019-05-02T08:37:47.397Z,20.95
2019-05-02T08:40:16.061Z,19.50
2019-05-02T08:42:44.493Z,23.30
2019-05-02T08:45:13.350Z,19.55
2019-05-02T08:47:41.797Z,25.05
2019-05-02T08:50:10.973Z,17.65
2019-05-02T08:52:42.406Z,23.70
2019-05-02T08:55:10.947Z,22.27
2019-05-02T08:57:39.568Z,27.60
2019-05-02T09:00:10.333Z,21.80
2019-05-02T09:02:41.473Z,25.45
2019-05-02T09:05:09.165Z,23.62
2019-05-02T09:07:40.053Z,24.52
2019-05-02T09:10:09.689Z,30.08
2019-05-02T09:12:42.276Z,25.37
2019-05-02T09:15:09.049Z,27.77
2019-05-02T09:17:38.873Z,24.45
2019-05-02T09:20:15.005Z,25.62
2019-05-02T09:22:38.312Z,26.07
2019-05-02T09:25:08.075Z,29.92
2019-05-02T09:27:36.686Z,28.15
2019-05-02T09:30:17.132Z,27.85
2019-05-02T09:32:42.638Z,29.72
2019-05-02T09:35:11.681Z,27.62
2019-05-02T09:37:41.875Z,31.70
2019-05-02T09:40:14.999Z,28.17
2019-05-02T09:42:43.055Z,27.10
2019-05-02T09:45:15.926Z,25.20
2019-05-02T09:47:56.633Z,26.82
2019-05-02T09:50:20.515Z,32.30
2019-05-02T09:52:47.674Z,29.72
2019-05-02T09:55:17.353Z,35.30
2019-05-02T09:57:46.147Z,31.60
2019-05-02T10:00:36.242Z,28.80
2019-05-02T10:03:04.744Z,26.52
2019-05-02T10:05:33.195Z,26.80
2019-05-02T10:08:02.972Z,27.70
2019-05-02T10:10:37.051Z,27.67
2019-05-02T10:13:03.038Z,31.15
2019-05-02T10:15:32.700Z,30.40
2019-05-02T10:18:08.825Z,29.00
2019-05-02T10:20:36.238Z,30.45
2019-05-02T10:23:02.401Z,28.38
2019-05-02T10:25:38.423Z,29.50
2019-05-02T10:28:02.119Z,28.90
2019-05-02T10:30:35.596Z,28.32
2019-05-02T10:33:03.030Z,28.77
2019-05-02T10:35:40.363Z,30.62
2019-05-02T10:38:09.498Z,26.25
2019-05-02T10:40:35.877Z,30.37
2019-05-02T10:43:04.775Z,26.35
2019-05-02T10:45:33.220Z,26.70
2019-05-02T10:48:02.265Z,27.42
2019-05-02T10:50:32.939Z,25.70
2019-05-02T10:53:03.495Z,27.62
2019-05-02T10:55:33.234Z,25.90
2019-05-02T10:58:02.042Z,23.15
2019-05-02T11:00:32.567Z,27.80
2019-05-02T11:03:12.057Z,23.73
2019-05-02T11:05:57.946Z,25.55
2019-05-02T11:08:27.508Z,21.23
2019-05-02T11:10:56.030Z,21.60
2019-05-02T11:13:26.085Z,27.13
2019-05-02T11:16:12.633Z,28.27
2019-05-02T11:18:59.330Z,24.10
2019-05-02T11:21:28.011Z,23.73
2019-05-02T11:23:56.582Z,25.68
2019-05-02T11:26:25.469Z,19.92
2019-05-02T11:28:54.042Z,21.55
2019-05-02T11:31:22.499Z,22.82
2019-05-02T11:33:52.668Z,18.30
2019-05-02T11:36:22.382Z,20.82
2019-05-02T11:38:59.906Z,19.95
2019-05-02T11:41:22.469Z,26.45
2019-05-02T11:43:54.074Z,22.20
2019-05-02T11:46:22.129Z,20.10
2019-05-02T11:48:56.428Z,20.75
2019-05-02T11:51:22.696Z,24.90
2019-05-02T11:53:52.662Z,24.07
2019-05-02T11:56:22.202Z,21.50
2019-05-02T11:58:52.808Z,19.17
2019-05-02T12:01:35.001Z,23.83
2019-05-02T12:03:52.622Z,19.15
2019-05-02T12:06:22.536Z,19.23
2019-05-02T12:08:52.558Z,22.67
2019-05-02T12:11:22.897Z,21.95
2019-05-02T12:13:52.832Z,21.93
2019-05-02T12:16:22.868Z,20.27
2019-05-02T12:18:53.559Z,21.05
2019-05-02T12:21:22.940Z,18.82
2019-05-02T12:23:52.643Z,23.75
2019-05-02T12:26:22.066Z,20.80
2019-05-02T12:28:52.739Z,21.25
2019-05-02T12:31:26.360Z,20.50
2019-05-02T12:33:55.541Z,20.62
2019-05-02T12:36:24.321Z,19.73
2019-05-02T12:38:52.886Z,19.40
2019-05-02T12:41:24.951Z,21.00
2019-05-02T12:43:52.452Z,21.45
2019-05-02T12:46:22.170Z,24.47
2019-05-02T12:48:51.961Z,24.70
2019-05-02T12:51:22.548Z,20.08
2019-05-02T12:53:52.871Z,20.88
2019-05-02T12:56:22.963Z,25.35
2019-05-02T12:58:53.026Z,21.05
2019-05-02T13:01:21.995Z,28.85
2019-05-02T13:03:52.352Z,25.85
2019-05-02T13:06:21.947Z,27.70
2019-05-02T13:08:52.391Z,25.48
2019-05-02T13:11:25.625Z,27.07
2019-05-02T13:13:54.215Z,26.10
2019-05-02T13:16:22.781Z,23.15
2019-05-02T13:18:51.950Z,22.48
2019-05-02T13:21:25.042Z,28.25
2019-05-02T13:26:36.378Z,23.67
2019-05-02T13:29:05.193Z,22.45
2019-05-02T13:31:38.167Z,22.52
2019-05-02T13:34:14.764Z,18.85
2019-05-02T13:36:47.991Z,20.37
2019-05-02T13:39:29.729Z,18.42
2019-05-02T13:41:58.302Z,18.85
2019-05-02T13:44:29.172Z,17.25
2019-05-02T13:46:57.684Z,20.80
2019-05-02T13:49:26.136Z,21.05
2019-05-02T13:51:54.633Z,19.20
2019-05-02T13:54:23.049Z,21.90
2019-05-02T13:56:53.170Z,18.30
2019-05-02T13:59:22.370Z,20.55
2019-05-02T14:01:52.886Z,19.37
2019-05-02T14:04:23.163Z,19.55
2019-05-02T14:06:52.827Z,21.30
2019-05-02T14:09:23.288Z,19.27
2019-05-02T14:11:59.325Z,19.80
2019-05-02T14:14:27.801Z,21.62
2019-05-02T14:16:56.352Z,20.85
2019-05-02T14:19:24.786Z,17.48
2019-05-02T14:21:53.219Z,20.05
2019-05-02T14:24:24.622Z,18.40
2019-05-02T14:26:53.152Z,22.17
2019-05-02T14:29:21.827Z,18.98
2019-05-02T14:31:51.993Z,16.82
2019-05-02T14:34:25.221Z,17.50
2019-05-02T14:36:58.916Z,18.00
2019-05-02T14:39:23.955Z,19.80
2019-05-02T14:41:52.695Z,20.88
2019-05-02T14:44:23.340Z,23.50
2019-05-02T14:46:52.326Z,17.17
2019-05-02T14:49:24.404Z,12.78
2019-05-02T14:51:52.529Z,13.58
2019-05-02T14:54:22.979Z,14.45
2019-05-02T14:57:02.178Z,12.50
2019-05-02T14:59:32.284Z,9.80
2019-05-02T15:02:07.099Z,9.55
2019-05-02T15:04:32.751Z,9.15
2019-05-02T15:07:02.104Z,10.20
2019-05-02T15:09:35.731Z,8.75
2019-05-02T15:12:08.651Z,8.65
2019-05-02T15:14:34.948Z,10.32
2019-05-02T15:17:07.833Z,8.15
2019-05-02T15:19:36.321Z,9.05
2019-05-02T15:22:05.385Z,10.70
2019-05-02T15:24:37.396Z,11.38
2019-05-02T15:27:12.279Z,9.30
2019-05-02T15:29:34.289Z,11.63
2019-05-02T15:32:22.236Z,12.15
2019-05-02T15:35:09.352Z,9.33
2019-05-02T15:37:37.789Z,9.33
2019-05-02T15:42:37.534Z,12.30
2019-05-02T15:45:07.223Z,8.90
2019-05-02T15:47:37.179Z,13.55
2019-05-02T15:50:06.416Z,11.53
2019-05-02T15:52:36.481Z,10.38
2019-05-02T15:55:08.036Z,10.75
2019-05-02T15:57:42.936Z,10.93
2019-05-02T16:00:10.108Z,9.88
2019-05-02T16:02:38.703Z,9.50
2019-05-02T16:05:08.478Z,7.87
2019-05-02T16:07:38.027Z,7.92
2019-05-02T16:10:10.211Z,9.98
2019-05-02T16:12:39.229Z,9.08
2019-05-02T16:15:13.601Z,10.88
2019-05-02T16:17:38.032Z,10.85
2019-05-02T16:20:13.381Z,10.13
2019-05-02T16:22:46.277Z,9.43
2019-05-02T16:25:12.275Z,11.65
2019-05-02T16:27:44.977Z,9.08
2019-05-02T16:30:16.427Z,11.33
2019-05-02T16:32:46.648Z,11.45
2019-05-02T16:35:17.510Z,9.55
2019-05-02T16:37:46.660Z,11.65
2019-05-02T16:40:22.054Z,10.15
2019-05-02T16:42:47.140Z,12.55
2019-05-02T16:45:16.245Z,13.28
2019-05-02T16:47:44.725Z,10.50
2019-05-02T16:50:18.597Z,12.82
2019-05-02T16:52:47.449Z,12.63
2019-05-02T16:55:20.719Z,10.80
2019-05-02T16:57:47.429Z,8.83
2019-05-02T17:00:22.517Z,9.43
2019-05-02T17:02:51.029Z,9.20
2019-05-02T17:05:19.529Z,11.48
2019-05-02T17:08:02.286Z,12.03
2019-05-02T17:10:34.838Z,12.03
2019-05-02T17:13:02.816Z,12.28
2019-05-02T17:15:35.772Z,12.05
2019-05-02T17:20:34.242Z,11.40
2019-05-02T17:23:07.263Z,11.55
2019-05-02T17:25:33.168Z,14.53
2019-05-02T17:28:06.987Z,14.15
2019-05-02T17:30:38.953Z,13.18
2019-05-02T17:33:07.117Z,12.23
2019-05-02T17:35:33.947Z,12.35
2019-05-02T17:38:02.693Z,13.48
2019-05-02T17:40:31.270Z,12.05
2019-05-02T17:43:02.906Z,13.40
2019-05-02T17:45:33.389Z,13.80
2019-05-02T17:48:00.367Z,17.45
2019-05-02T17:50:43.725Z,14.45
2019-05-02T17:53:13.811Z,12.98
2019-05-02T17:55:44.354Z,13.58
2019-05-02T17:58:14.158Z,14.47
2019-05-02T18:00:47.480Z,15.10
2019-05-02T18:03:15.509Z,15.72
2019-05-02T18:05:44.327Z,14.68
2019-05-02T18:08:14.770Z,17.17
2019-05-02T18:10:42.940Z,18.42
2019-05-02T18:13:12.188Z,20.95
2019-05-02T18:15:41.685Z,19.10
2019-05-02T18:18:10.373Z,19.50
2019-05-02T18:20:42.907Z,17.27
2019-05-02T18:23:09.109Z,20.68
2019-05-02T18:25:37.567Z,21.77
2019-05-02T18:28:06.001Z,25.08
2019-05-02T18:30:34.436Z,24.95
2019-05-02T18:33:07.051Z,27.73
2019-05-02T18:35:37.385Z,27.80
2019-05-02T18:38:04.496Z,26.15
2019-05-02T18:40:33.001Z,27.85
2019-05-02T18:43:05.149Z,31.77
2019-05-02T18:45:31.971Z,26.75
2019-05-02T18:48:05.378Z,28.32
2019-05-02T18:50:36.773Z,28.00
2019-05-02T18:53:05.728Z,29.00
2019-05-02T18:55:34.717Z,32.50
2019-05-02T18:58:05.411Z,32.05
2019-05-02T19:00:38.355Z,33.65
2019-05-02T19:03:07.478Z,35.33
2019-05-02T19:05:36.653Z,40.40
2019-05-02T19:08:05.405Z,42.48
2019-05-02T19:10:37.096Z,40.08
2019-05-02T19:13:06.073Z,41.70
2019-05-02T19:15:39.695Z,40.95
2019-05-02T19:18:05.600Z,42.83
2019-05-02T19:20:37.205Z,42.73
2019-05-02T19:23:05.805Z,42.90
2019-05-02T19:25:34.253Z,40.65
2019-05-02T19:28:05.829Z,41.70
2019-05-02T19:30:38.740Z,41.15
2019-05-02T19:35:37.545Z,40.10
2019-05-02T19:38:07.011Z,43.65
2019-05-02T19:40:35.438Z,40.30
2019-05-02T19:43:07.639Z,44.33
2019-05-02T19:45:34.165Z,45.28
2019-05-02T19:48:02.821Z,43.40
2019-05-02T19:50:43.066Z,45.98
2019-05-02T19:53:14.979Z,44.38
2019-05-02T19:55:38.506Z,44.77
2019-05-02T19:58:07.188Z,51.60
2019-05-02T20:00:42.245Z,49.42
2019-05-02T20:03:08.236Z,48.48
2019-05-02T20:05:36.723Z,51.35
2019-05-02T20:08:05.508Z,46.75
2019-05-02T20:10:34.099Z,45.15
2019-05-02T20:13:03.153Z,49.15
2019-05-02T20:15:33.432Z,46.92
2019-05-02T20:18:04.615Z,46.50
2019-05-02T20:21:02.643Z,46.95
2019-05-02T20:23:35.373Z,47.30
2019-05-02T20:26:01.497Z,51.42
2019-05-02T20:28:31.647Z,50.20
2019-05-02T20:31:01.773Z,51.23
2019-05-02T20:33:32.443Z,49.23
2019-05-02T20:36:01.812Z,48.75
2019-05-02T20:38:32.534Z,53.10
2019-05-02T20:41:02.993Z,50.33
2019-05-02T20:43:32.295Z,49.90
2019-05-02T20:46:02.653Z,49.85
2019-05-02T20:48:32.185Z,57.05
2019-05-02T20:51:02.703Z,56.83
2019-05-02T20:53:34.054Z,52.33
2019-05-02T20:56:01.929Z,54.93
2019-05-02T20:58:33.497Z,50.08
2019-05-02T21:01:08.557Z,50.85
2019-05-02T21:03:32.246Z,53.40
2019-05-02T21:06:08.401Z,55.28
2019-05-02T21:08:44.226Z,53.30
2019-05-02T21:11:13.412Z,59.77
2019-05-02T21:13:41.937Z,53.48
2019-05-02T21:16:11.962Z,51.65
2019-05-02T21:18:42.307Z,58.80
2019-05-02T21:21:12.644Z,56.35
2019-05-02T21:23:47.041Z,59.05
2019-05-02T21:26:11.484Z,59.80
2019-05-02T21:28:40.054Z,60.83
2019-05-02T21:31:08.499Z,65.50
2019-05-02T21:33:39.177Z,63.20
2019-05-02T21:36:08.050Z,66.50
2019-05-02T21:38:36.857Z,63.48
2019-05-02T21:41:08.381Z,64.87
2019-05-02T21:43:36.800Z,61.77
2019-05-02T21:46:05.394Z,65.50
2019-05-02T21:48:33.888Z,65.20
2019-05-02T21:51:20.164Z,66.28
2019-05-02T21:54:05.271Z,62.48
2019-05-02T21:56:43.062Z,60.67
2019-05-02T21:59:12.526Z,59.45
2019-05-02T22:01:45.688Z,55.08
2019-05-02T22:04:14.347Z,50.92
2019-05-02T22:06:42.904Z,48.80
2019-05-02T22:09:12.410Z,51.55
2019-05-02T22:11:42.904Z,51.13
2019-05-02T22:14:13.230Z,49.93
2019-05-02T22:16:42.241Z,46.30
2019-05-02T22:19:10.809Z,50.65
2019-05-02T22:21:39.269Z,50.20
2019-05-02T22:24:11.446Z,48.17
2019-05-02T22:26:43.356Z,51.68
2019-05-02T22:29:08.262Z,50.45
2019-05-02T22:31:36.712Z,50.92
2019-05-02T22:34:06.466Z,48.15
2019-05-02T22:36:34.927Z,52.03
2019-05-02T22:39:06.040Z,49.67
2019-05-02T22:41:34.537Z,46.30
2019-05-02T22:44:02.979Z,50.03
2019-05-02T22:46:43.228Z,46.50
2019-05-02T22:49:15.309Z,48.33
2019-05-02T22:51:44.348Z,43.85
2019-05-02T22:54:26.976Z,46.95
2019-05-02T22:56:45.048Z,45.17
2019-05-02T22:59:13.489Z,45.05
2019-05-02T23:01:42.331Z,49.70
2019-05-02T23:04:12.766Z,44.90
2019-05-02T23:06:43.941Z,46.00
2019-05-02T23:09:12.742Z,50.38
2019-05-02T23:11:42.534Z,50.00
2019-05-02T23:14:13.129Z,47.30
2019-05-02T23:16:42.640Z,44.55
2019-05-02T23:19:12.267Z,44.42
2019-05-02T23:21:42.168Z,47.27
2019-05-02T23:24:14.575Z,46.30
2019-05-02T23:26:51.831Z,50.75
2019-05-02T23:29:22.434Z,42.35
2019-05-02T23:31:51.791Z,42.85
2019-05-02T23:34:23.352Z,41.92
2019-05-02T23:36:52.286Z,42.58
2019-05-02T23:39:20.917Z,43.02
2019-05-02T23:41:49.316Z,44.18
2019-05-02T23:44:17.748Z,41.73
2019-05-02T23:46:46.171Z,43.35
2019-05-02T23:49:14.688Z,41.83
2019-05-02T23:51:43.118Z,42.43
2019-05-02T23:54:12.953Z,40.50
2019-05-02T23:56:43.041Z,38.40
2019-05-02T23:59:12.117Z,41.63
